createdAt,value
2023-02-25T00:00:25.394Z,1.52
2023-02-25T00:02:54.836Z,1.41
2023-02-25T00:05:24.667Z,1.40
2023-02-25T00:07:55.160Z,1.36
2023-02-25T00:10:26.057Z,1.30
2023-02-25T00:13:00.759Z,1.27
2023-02-25T00:15:35.352Z,1.16
2023-02-25T00:18:04.935Z,1.15
2023-02-25T00:20:34.422Z,1.13
2023-02-25T00:23:03.817Z,1.12
2023-02-25T00:25:34.690Z,1.13
2023-02-25T00:28:06.335Z,1.07
2023-02-25T00:30:36.648Z,1.16
2023-02-25T00:33:07.476Z,1.16
2023-02-25T00:35:40.963Z,1.19
2023-02-25T00:38:16.008Z,1.31
2023-02-25T00:40:49.232Z,1.40
2023-02-25T00:43:18.643Z,1.33
2023-02-25T00:45:48.030Z,1.23
2023-02-25T00:48:17.495Z,0.99
2023-02-25T00:50:47.151Z,0.94
2023-02-25T00:53:17.208Z,0.88
2023-02-25T00:55:47.960Z,0.79
2023-02-25T00:58:17.364Z,0.71
2023-02-25T01:00:51.897Z,0.65
2023-02-25T01:03:21.644Z,0.51
2023-02-25T01:05:51.191Z,0.48
2023-02-25T01:08:21.724Z,0.46
2023-02-25T01:10:53.634Z,0.52
2023-02-25T01:13:23.132Z,0.56
2023-02-25T01:15:52.777Z,0.49
2023-02-25T01:18:22.322Z,0.50
2023-02-25T01:20:51.769Z,0.47
2023-02-25T01:23:21.578Z,0.46
2023-02-25T01:25:52.406Z,0.43
2023-02-25T01:28:23.624Z,0.46
2023-02-25T01:30:54.231Z,0.47
2023-02-25T01:33:23.824Z,0.41
2023-02-25T01:35:53.288Z,0.34
2023-02-25T01:38:22.725Z,0.40
2023-02-25T01:41:02.223Z,0.46
2023-02-25T01:43:31.816Z,0.50
2023-02-25T01:46:01.373Z,0.56
2023-02-25T01:48:36.668Z,0.67
2023-02-25T01:51:13.003Z,0.63
2023-02-25T01:53:47.937Z,0.67
2023-02-25T01:56:21.801Z,0.70
2023-02-25T01:58:53.087Z,0.76
2023-02-25T02:01:27.628Z,0.77
2023-02-25T02:03:57.909Z,0.83
2023-02-25T02:06:34.752Z,0.92
2023-02-25T02:09:07.181Z,1.00
2023-02-25T02:11:38.059Z,0.98
2023-02-25T02:14:11.848Z,0.93
2023-02-25T02:17:17.311Z,0.90
2023-02-25T02:20:12.987Z,0.90
2023-02-25T02:23:23.074Z,0.86
2023-02-25T02:26:41.085Z,0.79
2023-02-25T02:30:08.403Z,0.72
2023-02-25T02:32:47.830Z,0.67
2023-02-25T02:35:27.796Z,0.67
2023-02-25T02:38:13.292Z,0.65
2023-02-25T02:40:53.582Z,0.64
2023-02-25T02:43:40.500Z,0.60
2023-02-25T02:46:19.979Z,0.58
2023-02-25T02:48:59.959Z,0.52
2023-02-25T02:51:36.671Z,0.56
2023-02-25T02:54:09.848Z,0.52
2023-02-25T02:56:44.444Z,0.55
2023-02-25T02:59:20.613Z,0.57
2023-02-25T03:01:55.943Z,0.55
2023-02-25T03:04:35.138Z,0.62
2023-02-25T03:07:10.277Z,0.56
2023-02-25T03:09:47.383Z,0.51
2023-02-25T03:12:17.752Z,0.55
2023-02-25T03:14:47.269Z,0.58
2023-02-25T03:17:22.211Z,0.54
2023-02-25T03:20:02.693Z,0.52
2023-02-25T03:22:39.267Z,0.61
2023-02-25T03:25:16.248Z,0.60
2023-02-25T03:27:49.356Z,0.58
2023-02-25T03:30:32.917Z,0.63
2023-02-25T03:33:10.551Z,0.57
2023-02-25T03:35:43.649Z,0.60
2023-02-25T03:38:19.465Z,0.60
2023-02-25T03:40:51.351Z,0.60
2023-02-25T03:43:29.574Z,0.57
2023-02-25T03:45:59.955Z,0.57
2023-02-25T03:48:31.391Z,0.54
2023-02-25T03:51:06.681Z,0.52
2023-02-25T03:53:38.468Z,0.57
2023-02-25T03:56:18.064Z,0.62
2023-02-25T03:58:47.611Z,0.63
2023-02-25T04:01:22.566Z,0.57
2023-02-25T04:03:52.037Z,0.71
2023-02-25T04:06:25.620Z,0.77
2023-02-25T04:08:55.431Z,0.78
2023-02-25T04:11:25.415Z,0.75
2023-02-25T04:13:55.571Z,0.68
2023-02-25T04:16:25.275Z,0.65
2023-02-25T04:18:54.939Z,0.64
2023-02-25T04:21:35.284Z,0.66
2023-02-25T04:24:06.883Z,0.72
2023-02-25T04:26:37.461Z,0.74
2023-02-25T04:29:06.885Z,0.72
2023-02-25T04:31:36.390Z,0.78
2023-02-25T04:34:05.933Z,0.86
2023-02-25T04:36:37.902Z,0.86
2023-02-25T04:39:07.385Z,0.91
2023-02-25T04:41:37.500Z,0.93
2023-02-25T04:44:08.969Z,0.89
2023-02-25T04:46:42.460Z,0.88
2023-02-25T04:49:12.448Z,0.78
2023-02-25T04:51:43.238Z,0.92
2023-02-25T04:54:13.732Z,0.92
2023-02-25T04:56:43.480Z,0.98
2023-02-25T04:59:13.210Z,0.83
2023-02-25T05:01:43.724Z,0.85
2023-02-25T05:04:13.152Z,0.92
2023-02-25T05:06:43.943Z,0.91
2023-02-25T05:09:13.401Z,0.93
2023-02-25T05:11:42.831Z,0.94
2023-02-25T05:14:12.288Z,0.92
2023-02-25T05:16:41.721Z,0.99
2023-02-25T05:19:17.126Z,1.00
2023-02-25T05:21:48.104Z,1.02
2023-02-25T05:24:18.350Z,1.00
2023-02-25T05:26:47.877Z,1.04
2023-02-25T05:29:17.542Z,1.08
2023-02-25T05:31:47.656Z,1.07
2023-02-25T05:34:18.418Z,1.06
2023-02-25T05:36:49.285Z,1.04
2023-02-25T05:39:18.752Z,1.03
2023-02-25T05:41:48.957Z,1.00
2023-02-25T05:44:18.909Z,0.99
2023-02-25T05:46:48.335Z,1.04
2023-02-25T05:49:17.824Z,0.96
2023-02-25T05:51:50.544Z,1.00
2023-02-25T05:54:19.994Z,1.05
2023-02-25T05:56:52.861Z,1.10
2023-02-25T05:59:22.520Z,1.10
2023-02-25T06:01:52.069Z,1.01
2023-02-25T06:04:22.181Z,1.06
